Tamworth Airport
YSTW : now visible

Airfield :











YOU CAN JOIN US ON...

 
LOGIN :

Register | Disclaimer

   EN    FR    IT 

 









Legend :    VFR   Marginal VFR   IFR   Intensive IFR   Very Intensive IFR
Visi :
Ceiling :
>= 8 km
>= 3000ft
5 to 8 km
1000 to 3000 ft
1500m to 5 km
500 to 1000 ft
800 to 1500m
200 to 500 ft
< 800m
< 200 ft
Symbols :   Thunderstorms  Fog  Heavy snow  Heavy precipitations  Wind > 20 kt






- Airport Elevation : 1334 ft
- IATA code : TMW


YSTW - Tamworth

CURRENT METAR :
  • 040630Z AUTO 29002KT 9999 // OVC024 12/07 Q1016 RF00.0/000.0

EXPIRED METARs :
  • 040600Z AUTO 02001KT 9999 // OVC024 12/07 Q1015 RF00.0/000.0
  • 040530Z AUTO 00000KT 9999 // OVC024 12/07 Q1014 RF00.0/000.0
  • 040500Z AUTO 00000KT 9999 // OVC024 13/07 Q1015 RF00.0/000.0
  • 040430Z AUTO 23003KT 9999 // OVC024 13/07 Q1014 RF00.0/000.0

TAF AMD TAF YSTW
Valid from the 04 at 06:00 until the 05 at 00:00 UTC


040518Z 0406/0500 VRB03KT 9999 SCT040
TEMPO 0411/0420 9999 BKN010
YBBB FIR / Oceania



MET'MAP, your aeronautical weather chart ! - Copyright ORBIFLY December 2007 - Disclaimer

ORBIFLY MET'MAP TEAM :

Programming & Development : Alexandra Zaïnal
Original concept : Baudouin d'Aumeries
Technical & hardware support : Manuel Goepfert
Assistance : Marc-Olivier Méhu




SOURCES & CREDITS :

   NOAA       Earth
Advisory